createdAt,value
2023-05-12T00:00:48.767Z,90
2023-05-12T00:20:49.368Z,90
2023-05-12T00:40:47.854Z,91
2023-05-12T01:00:47.965Z,91
2023-05-12T01:20:46.686Z,91
2023-05-12T01:40:46.880Z,91
2023-05-12T02:00:50.506Z,91
2023-05-12T02:20:47.348Z,90
2023-05-12T02:40:47.432Z,91
2023-05-12T03:00:57.076Z,91
2023-05-12T03:20:47.341Z,91
2023-05-12T03:40:47.628Z,91
2023-05-12T04:00:47.680Z,91
2023-05-12T04:20:49.946Z,91
2023-05-12T04:41:07.692Z,92
2023-05-12T05:01:08.533Z,91
2023-05-12T05:21:23.079Z,91
2023-05-12T05:41:22.440Z,92
2023-05-12T06:01:17.287Z,91
2023-05-12T06:21:06.550Z,91
2023-05-12T06:41:08.132Z,91
2023-05-12T07:01:17.661Z,90
2023-05-12T07:21:07.580Z,90
2023-05-12T07:41:17.558Z,89
2023-05-12T08:01:12.765Z,89
2023-05-12T08:21:08.845Z,89
2023-05-12T08:41:07.265Z,89
2023-05-12T09:01:08.322Z,86
2023-05-12T09:21:08.798Z,86
2023-05-12T09:41:07.190Z,84
2023-05-12T10:01:48.942Z,85
2023-05-12T10:21:14.084Z,79
2023-05-12T10:41:10.590Z,78
2023-05-12T11:01:19.496Z,78
2023-05-12T11:21:09.182Z,76
2023-05-12T11:41:11.218Z,73
2023-05-12T12:01:08.009Z,71
2023-05-12T12:21:09.000Z,68
2023-05-12T12:41:15.331Z,69
2023-05-12T13:01:17.185Z,68
2023-05-12T13:21:07.509Z,70
2023-05-12T13:41:14.197Z,66
2023-05-12T14:01:12.841Z,67
2023-05-12T14:21:08.883Z,68
2023-05-12T14:41:19.088Z,67
2023-05-12T15:01:14.946Z,64
2023-05-12T15:21:08.188Z,65
2023-05-12T15:41:10.398Z,61
2023-05-12T16:01:09.761Z,65
2023-05-12T16:21:06.020Z,66
2023-05-12T16:41:10.183Z,69
2023-05-12T17:01:09.051Z,70
2023-05-12T17:21:10.119Z,69
2023-05-12T17:41:17.291Z,69
2023-05-12T18:01:05.714Z,70
2023-05-12T18:21:09.165Z,70
2023-05-12T18:41:07.736Z,69
2023-05-12T19:01:07.280Z,70
2023-05-12T19:20:46.590Z,73
2023-05-12T19:40:46.543Z,75
2023-05-12T20:00:51.111Z,74
2023-05-12T20:20:47.074Z,76
2023-05-12T20:40:47.588Z,77
2023-05-12T21:00:46.718Z,79
2023-05-12T21:20:47.817Z,83
2023-05-12T21:40:48.042Z,82
2023-05-12T22:00:53.571Z,83
2023-05-12T22:20:48.866Z,83
2023-05-12T22:40:51.324Z,84
2023-05-12T23:00:47.259Z,86
2023-05-12T23:20:46.196Z,88
2023-05-12T23:40:56.018Z,87
